Apalachicola, Florida
Current Conditions -  °F | °C
As of 4:53 PM on Monday 20 Oct 2014 (Local Time) from KAAF Reporting Station
Clear Clear  
Wind Chill: 80°   Ceiling: Unl
Heat Index: 83°   Visibility: 10mi
Dew Point: 69°   Wind: 6mph
Humidity: 69%   Direction: 130°SE
Pressure: 29.96"   Gusts: NA
Location:  29.73°N, 84.99°W
Report Text: KAAF 202053Z AUTO 13005KT 10SM CLR 27/21 A2996 RMK AO2 SLP146 T02670206 56014 TSNO
Loading
Personal Weather Stations






























Interactive Weather Map
Tropical Storm Tracking
New forecast layout! Learn more

10-Day Weather Forecast

Advertisements
Track Severe Weather on mobile